Pecksridge, Kentucky
Current Conditions -  °F | °C
As of 5:35 AM on Saturday 22 Nov 2014 (Local Time) from KFGX Reporting Station
Overcast Overcast  
Wind Chill: 29°   Ceiling: 4200
Heat Index: 35°   Visibility: 10mi
Dew Point: 18°   Wind: 7mph
Humidity: 50%   Direction: 190°S
Pressure: 30.34"   Gusts: NA
Location:  38.436°N, 83.6931°W
Report Text: KFGX 221035Z AUTO 19006KT 10SM OVC042 02/M08 A3034 RMK AO2 T00171077
Loading
Personal Weather Stations






























Interactive Weather Map New forecast layout! Learn more

10-Day Weather Forecast

Advertisements
Track Severe Weather on mobile